Time;durP1;ratioP1;P1;durP2;ratioP2;P2;SDS_P1;SDS_P2;PMS_P1;PMS_P2;Temp;Humidity;BMP_temperature;BMP_pressure;BME280_temperature;BME280_humidity;BME280_pressure;Samples;Min_cycle;Max_cycle;Signal;HPM_P1;HPM_P2
2024/02/08 00:00:18;;;;;;;33.17;29.70;;;;;;;;;;5072854;28;20204;-76
2024/02/08 00:02:45;;;;;;;34.42;30.10;;;;;;;;;;5071601;28;20192;-76
2024/02/08 00:05:12;;;;;;;35.75;29.70;;;;;;;;;;5071418;28;20211;-77
2024/02/08 00:07:40;;;;;;;32.08;28.63;;;;;;;;;;5070912;28;20230;-77
2024/02/08 00:10:09;;;;;;;30.38;27.35;;;;;;;;;;5071448;28;20227;-78
2024/02/08 00:12:37;;;;;;;29.90;27.13;;;;;;;;;;5070363;28;20210;-77
2024/02/08 00:15:06;;;;;;;32.05;27.75;;;;;;;;;;5071142;28;20210;-77
2024/02/08 00:17:33;;;;;;;30.10;26.70;;;;;;;;;;5070526;28;20241;-76
2024/02/08 00:20:00;;;;;;;34.33;27.20;;;;;;;;;;5071401;28;20192;-77
2024/02/08 00:22:27;;;;;;;29.83;26.63;;;;;;;;;;5071036;28;20208;-77
2024/02/08 00:24:55;;;;;;;30.60;26.45;;;;;;;;;;5071357;28;20260;-76
2024/02/08 00:27:23;;;;;;;30.25;27.55;;;;;;;;;;5078189;28;20280;-76
2024/02/08 00:29:50;;;;;;;28.08;25.05;;;;;;;;;;5091013;28;20659;-77
2024/02/08 00:32:19;;;;;;;34.85;26.52;;;;;;;;;;5091589;28;20213;-77
2024/02/08 00:34:48;;;;;;;30.90;28.13;;;;;;;;;;5091730;28;20275;-77
2024/02/08 00:37:15;;;;;;;29.40;26.40;;;;;;;;;;5090662;28;20203;-77
2024/02/08 00:39:43;;;;;;;29.42;26.15;;;;;;;;;;5091611;28;20215;-76
2024/02/08 00:42:11;;;;;;;30.02;27.23;;;;;;;;;;5091424;28;20214;-76
2024/02/08 00:44:41;;;;;;;33.83;28.05;;;;;;;;;;5091086;28;20280;-77
2024/02/08 00:47:08;;;;;;;28.75;25.73;;;;;;;;;;5090455;28;20187;-76
2024/02/08 00:49:35;;;;;;;29.58;26.55;;;;;;;;;;5090749;28;20210;-77
2024/02/08 00:52:02;;;;;;;29.35;26.48;;;;;;;;;;5090228;28;20709;-76
2024/02/08 00:54:29;;;;;;;29.10;26.40;;;;;;;;;;5091129;28;20276;-76
2024/02/08 00:56:56;;;;;;;30.67;27.38;;;;;;;;;;5090161;28;20207;-77
2024/02/08 00:59:25;;;;;;;29.15;26.20;;;;;;;;;;5091203;28;20221;-76
2024/02/08 01:01:56;;;;;;;32.42;27.15;;;;;;;;;;5091054;28;20195;-76
2024/02/08 01:04:23;;;;;;;29.48;26.63;;;;;;;;;;5090703;28;20574;-78
2024/02/08 01:06:50;;;;;;;27.85;25.35;;;;;;;;;;5090210;28;20210;-76
2024/02/08 01:09:17;;;;;;;29.67;25.98;;;;;;;;;;5090528;28;20227;-76
2024/02/08 01:11:44;;;;;;;31.25;27.90;;;;;;;;;;5090580;28;20229;-76
2024/02/08 01:14:12;;;;;;;37.00;25.67;;;;;;;;;;5090610;28;20250;-77
2024/02/08 01:16:46;;;;;;;27.38;24.80;;;;;;;;;;5089871;28;20209;-76
2024/02/08 01:19:16;;;;;;;29.70;26.60;;;;;;;;;;5090446;28;20238;-77
2024/02/08 01:21:44;;;;;;;30.40;27.17;;;;;;;;;;5090266;28;20337;-76
2024/02/08 01:24:11;;;;;;;34.33;28.17;;;;;;;;;;5090332;28;20202;-76
2024/02/08 01:26:38;;;;;;;28.70;25.90;;;;;;;;;;5090104;28;20727;-76
2024/02/08 01:29:06;;;;;;;29.17;26.13;;;;;;;;;;5090460;28;20231;-75
2024/02/08 01:31:37;;;;;;;28.80;25.67;;;;;;;;;;5090086;28;20230;-76
2024/02/08 01:34:05;;;;;;;26.60;24.30;;;;;;;;;;5090154;28;20665;-76
2024/02/08 01:36:34;;;;;;;30.65;27.38;;;;;;;;;;5089996;28;20203;-76
2024/02/08 01:39:02;;;;;;;28.08;25.48;;;;;;;;;;5090778;28;20219;-76
2024/02/08 01:41:30;;;;;;;26.20;23.58;;;;;;;;;;5091181;28;20202;-76
2024/02/08 01:44:00;;;;;;;27.88;24.90;;;;;;;;;;5090348;28;20256;-76
2024/02/08 01:46:27;;;;;;;27.70;24.80;;;;;;;;;;5089712;28;20581;-78
2024/02/08 01:48:54;;;;;;;26.45;24.05;;;;;;;;;;5089892;28;20264;-75
2024/02/08 01:51:24;;;;;;;27.17;24.33;;;;;;;;;;5090575;28;20234;-76
2024/02/08 01:53:54;;;;;;;26.60;24.00;;;;;;;;;;5090459;28;20191;-76
2024/02/08 01:56:21;;;;;;;26.77;24.38;;;;;;;;;;5089774;28;20214;-76
2024/02/08 01:58:49;;;;;;;26.27;24.05;;;;;;;;;;5073324;28;20234;-76
2024/02/08 02:01:16;;;;;;;43.05;24.95;;;;;;;;;;5070425;28;20195;-76
2024/02/08 02:03:43;;;;;;;26.00;23.55;;;;;;;;;;5070069;28;20654;-76
2024/02/08 02:06:13;;;;;;;30.73;23.83;;;;;;;;;;5069762;28;20576;-75
2024/02/08 02:08:40;;;;;;;27.73;24.95;;;;;;;;;;5070292;28;20234;-77
2024/02/08 02:11:17;;;;;;;26.10;23.65;;;;;;;;;;5070317;28;20223;-77
2024/02/08 02:13:47;;;;;;;26.10;23.52;;;;;;;;;;5070208;28;20199;-77
2024/02/08 02:16:14;;;;;;;27.10;24.42;;;;;;;;;;5069379;28;20222;-77
2024/02/08 02:18:41;;;;;;;27.23;24.67;;;;;;;;;;5069955;28;20262;-76
2024/02/08 02:21:12;;;;;;;26.02;23.35;;;;;;;;;;5070073;28;20265;-77
2024/02/08 02:23:41;;;;;;;24.67;22.27;;;;;;;;;;5069485;28;20204;-77
2024/02/08 02:26:08;;;;;;;24.73;22.65;;;;;;;;;;5069300;28;20203;-76
2024/02/08 02:28:36;;;;;;;26.27;24.23;;;;;;;;;;5083975;28;20831;-76
2024/02/08 02:31:06;;;;;;;26.42;23.83;;;;;;;;;;5089822;28;20227;-77
2024/02/08 02:33:34;;;;;;;25.67;23.48;;;;;;;;;;5077379;28;20290;-77
2024/02/08 02:36:02;;;;;;;26.27;24.02;;;;;;;;;;5070863;28;20281;-77
2024/02/08 02:38:31;;;;;;;25.88;23.67;;;;;;;;;;5072964;28;20934;-75
2024/02/08 02:41:06;;;;;;;24.65;22.52;;;;;;;;;;5073088;28;20231;-75
2024/02/08 02:43:33;;;;;;;27.00;24.35;;;;;;;;;;5073317;28;20638;-77
2024/02/08 02:46:00;;;;;;;24.15;21.88;;;;;;;;;;5072723;28;20204;-77
2024/02/08 02:48:27;;;;;;;27.23;24.40;;;;;;;;;;5072839;28;20224;-77
2024/02/08 02:50:58;;;;;;;23.52;21.52;;;;;;;;;;5072837;28;20231;-76
2024/02/08 02:53:25;;;;;;;26.10;23.55;;;;;;;;;;5072600;28;20590;-77
2024/02/08 02:55:58;;;;;;;24.13;22.15;;;;;;;;;;5073113;28;20210;-75
2024/02/08 02:58:26;;;;;;;24.00;21.95;;;;;;;;;;5085801;28;20227;-76
2024/02/08 03:01:04;;;;;;;25.35;22.75;;;;;;;;;;5093072;28;20202;-76
2024/02/08 03:03:37;;;;;;;25.05;22.95;;;;;;;;;;5092867;28;20279;-75
2024/02/08 03:06:13;;;;;;;24.90;22.67;;;;;;;;;;5092346;28;20199;-77
2024/02/08 03:08:41;;;;;;;27.20;23.92;;;;;;;;;;5092926;28;20236;-77
2024/02/08 03:11:10;;;;;;;24.75;22.75;;;;;;;;;;5092036;28;20696;-76
2024/02/08 03:13:39;;;;;;;24.77;22.77;;;;;;;;;;5092854;28;20203;-76
2024/02/08 03:16:09;;;;;;;25.40;22.90;;;;;;;;;;5072504;28;20207;-77
2024/02/08 03:18:38;;;;;;;24.58;22.42;;;;;;;;;;5072247;28;20280;-75
2024/02/08 03:21:05;;;;;;;25.50;23.25;;;;;;;;;;5072353;28;20294;-76
2024/02/08 03:23:33;;;;;;;25.25;23.30;;;;;;;;;;5072408;28;20204;-77
2024/02/08 03:26:00;;;;;;;25.20;23.23;;;;;;;;;;5072274;28;20203;-76
2024/02/08 03:28:28;;;;;;;26.73;24.33;;;;;;;;;;5071866;28;20224;-77
2024/02/08 03:30:57;;;;;;;27.30;24.95;;;;;;;;;;5072065;28;20324;-77
2024/02/08 03:33:26;;;;;;;24.73;22.90;;;;;;;;;;5072708;28;20302;-77
2024/02/08 03:35:54;;;;;;;27.70;24.98;;;;;;;;;;5092255;28;20206;-76
2024/02/08 03:38:21;;;;;;;25.60;23.08;;;;;;;;;;5091971;28;20230;-76
2024/02/08 03:40:49;;;;;;;28.48;25.20;;;;;;;;;;5092187;28;20207;-76
2024/02/08 03:43:16;;;;;;;27.65;25.25;;;;;;;;;;5072740;28;20208;-77
2024/02/08 03:45:46;;;;;;;27.15;24.92;;;;;;;;;;5071620;28;20265;-77
2024/02/08 03:48:15;;;;;;;27.90;24.85;;;;;;;;;;5070313;28;20699;-77
2024/02/08 03:50:42;;;;;;;26.48;23.60;;;;;;;;;;5071833;28;20214;-76
2024/02/08 03:53:12;;;;;;;26.85;23.95;;;;;;;;;;5071662;28;20200;-76
2024/02/08 03:55:43;;;;;;;27.00;24.25;;;;;;;;;;5071762;28;20195;-76
2024/02/08 03:58:10;;;;;;;27.80;25.30;;;;;;;;;;5082117;28;20222;-76
2024/02/08 04:00:42;;;;;;;28.48;24.80;;;;;;;;;;5090886;28;20621;-75
2024/02/08 04:03:14;;;;;;;26.88;24.23;;;;;;;;;;5091384;28;20207;-75
2024/02/08 04:05:58;;;;;;;25.13;23.10;;;;;;;;;;5091606;28;20729;-77
2024/02/08 04:09:05;;;;;;;27.55;24.85;;;;;;;;;;5091248;28;20313;-77
2024/02/08 04:55:27;;;;;;;28.13;25.17;;;;;;;;;;5091163;28;20912;-77
2024/02/08 04:57:55;;;;;;;28.88;26.15;;;;;;;;;;5088789;28;20311;-77
2024/02/08 05:00:27;;;;;;;30.10;27.05;;;;;;;;;;5090380;28;20578;-75
2024/02/08 05:02:56;;;;;;;28.13;25.77;;;;;;;;;;5090836;28;20203;-76
2024/02/08 05:05:24;;;;;;;27.25;24.73;;;;;;;;;;5090568;28;20787;-76
2024/02/08 05:07:51;;;;;;;28.88;26.27;;;;;;;;;;5090083;28;20231;-77
2024/02/08 05:10:18;;;;;;;28.33;25.50;;;;;;;;;;5090687;28;20206;-76
2024/02/08 05:12:47;;;;;;;27.95;25.27;;;;;;;;;;5090240;28;20585;-76
2024/02/08 05:15:15;;;;;;;29.95;26.50;;;;;;;;;;5090659;28;20658;-75
2024/02/08 05:17:42;;;;;;;29.15;26.50;;;;;;;;;;5089619;28;20325;-75
2024/02/08 05:20:12;;;;;;;31.33;26.85;;;;;;;;;;5090347;28;20267;-78
2024/02/08 05:22:40;;;;;;;29.77;27.02;;;;;;;;;;5090564;28;20199;-76
2024/02/08 05:25:10;;;;;;;30.50;27.80;;;;;;;;;;5090544;28;20629;-76
2024/02/08 05:27:37;;;;;;;29.15;26.55;;;;;;;;;;5089800;28;20230;-77
2024/02/08 05:30:07;;;;;;;36.33;26.83;;;;;;;;;;5090207;28;20210;-76
2024/02/08 05:32:39;;;;;;;31.58;28.23;;;;;;;;;;5090490;28;20601;-77
2024/02/08 05:35:06;;;;;;;30.27;27.40;;;;;;;;;;5090114;28;20697;-77
2024/02/08 05:37:33;;;;;;;30.65;27.67;;;;;;;;;;5089821;28;20271;-76
2024/02/08 05:40:00;;;;;;;30.77;27.48;;;;;;;;;;5090351;28;20207;-76
2024/02/08 05:42:28;;;;;;;33.17;26.55;;;;;;;;;;5089652;28;20712;-78
2024/02/08 05:45:18;;;;;;;27.33;24.98;;;;;;;;;;5090132;28;20217;-77
2024/02/08 05:47:45;;;;;;;30.23;27.48;;;;;;;;;;5088968;28;21065;-76
2024/02/08 05:50:21;;;;;;;30.10;27.98;;;;;;;;;;5090284;28;20215;-76
2024/02/08 05:52:48;;;;;;;29.00;26.40;;;;;;;;;;5090307;28;20241;-75
2024/02/08 05:55:19;;;;;;;30.13;27.23;;;;;;;;;;5090242;28;20214;-78
2024/02/08 05:57:46;;;;;;;30.40;27.15;;;;;;;;;;5089506;28;20237;-76
2024/02/08 06:00:14;;;;;;;31.23;28.02;;;;;;;;;;5087684;28;20641;-76
2024/02/08 06:02:42;;;;;;;31.70;28.70;;;;;;;;;;5089857;28;20209;-76
2024/02/08 06:05:17;;;;;;;33.30;29.23;;;;;;;;;;5089760;28;20241;-75
2024/02/08 06:07:56;;;;;;;31.65;26.83;;;;;;;;;;5089350;28;20226;-75
2024/02/08 06:10:23;;;;;;;29.75;27.23;;;;;;;;;;5090675;28;20210;-75
2024/02/08 06:12:59;;;;;;;29.25;26.35;;;;;;;;;;5093688;28;20341;-77
2024/02/08 06:15:32;;;;;;;31.52;27.83;;;;;;;;;;5093944;28;20213;-76
2024/02/08 06:18:03;;;;;;;31.00;28.00;;;;;;;;;;5092798;28;20265;-77
2024/02/08 06:20:40;;;;;;;31.17;27.92;;;;;;;;;;5093814;28;20187;-76
2024/02/08 06:23:17;;;;;;;30.40;27.33;;;;;;;;;;5093491;28;20207;-76
2024/02/08 06:25:46;;;;;;;30.75;27.67;;;;;;;;;;5093523;28;20207;-77
2024/02/08 06:28:13;;;;;;;34.58;28.88;;;;;;;;;;5093043;28;20231;-75
2024/02/08 06:30:46;;;;;;;32.45;29.30;;;;;;;;;;5072918;28;20203;-77
2024/02/08 06:33:24;;;;;;;30.15;26.88;;;;;;;;;;5073465;28;20613;-76
2024/02/08 06:35:56;;;;;;;30.17;27.38;;;;;;;;;;5073064;28;20265;-76
2024/02/08 06:38:40;;;;;;;30.00;27.30;;;;;;;;;;5072647;28;20231;-77
2024/02/08 06:41:09;;;;;;;29.13;26.13;;;;;;;;;;5072986;28;20243;-76
2024/02/08 06:43:56;;;;;;;29.52;26.63;;;;;;;;;;5072801;28;20726;-76
2024/02/08 06:46:39;;;;;;;29.02;26.10;;;;;;;;;;5072686;28;20191;-77
2024/02/08 07:39:30;;;;;;;30.10;27.42;;;;;;;;;;5092229;28;20221;-76
2024/02/08 07:41:53;;;;;;;30.27;27.38;;;;;;;;;;5092096;28;20210;-76
2024/02/08 07:44:22;;;;;;;31.55;28.38;;;;;;;;;;5092845;28;20191;-78
2024/02/08 07:46:49;;;;;;;29.50;26.83;;;;;;;;;;5097850;28;20211;-78
2024/02/08 07:49:17;;;;;;;29.60;26.98;;;;;;;;;;5092326;28;20257;-79
2024/02/08 07:51:50;;;;;;;29.10;26.40;;;;;;;;;;5092654;28;20238;-77
2024/02/08 07:54:20;;;;;;;30.83;25.67;;;;;;;;;;5093044;28;20196;-81
2024/02/08 07:56:50;;;;;;;28.45;25.60;;;;;;;;;;5088399;28;20252;-75
2024/02/08 07:59:26;;;;;;;28.05;25.55;;;;;;;;;;5081669;28;20231;-77
2024/02/08 08:01:57;;;;;;;27.40;25.30;;;;;;;;;;5083788;28;20203;-76
2024/02/08 08:04:51;;;;;;;28.10;25.80;;;;;;;;;;5091717;28;20191;-77
2024/02/08 08:07:23;;;;;;;32.72;29.17;;;;;;;;;;5090731;28;21070;-76
2024/02/08 08:09:59;;;;;;;29.98;27.42;;;;;;;;;;5091921;28;20198;-77
2024/02/08 08:12:29;;;;;;;29.35;26.73;;;;;;;;;;5091671;28;20222;-76
2024/02/08 08:15:13;;;;;;;30.00;27.25;;;;;;;;;;5092183;28;20198;-76
2024/02/08 08:17:42;;;;;;;27.63;25.33;;;;;;;;;;5091015;28;20234;-76
2024/02/08 08:20:46;;;;;;;28.83;26.05;;;;;;;;;;5091380;28;20689;-76
2024/02/08 08:23:07;;;;;;;28.73;26.23;;;;;;;;;;5091507;28;20226;-77
2024/02/08 08:25:59;;;;;;;26.52;24.02;;;;;;;;;;5092413;28;20206;-76
2024/02/08 08:28:30;;;;;;;27.08;24.67;;;;;;;;;;5091073;28;20226;-77
2024/02/08 08:31:16;;;;;;;25.13;23.25;;;;;;;;;;5091265;28;20210;-77
2024/02/08 08:35:15;;;;;;;24.52;22.55;;;;;;;;;;5090674;28;20695;-75
2024/02/08 08:36:57;;;;;;;22.55;20.92;;;;;;;;;;5078943;28;20333;-75
2024/02/08 08:39:46;;;;;;;23.17;21.42;;;;;;;;;;5081281;28;20298;-75
2024/02/08 08:42:16;;;;;;;24.25;22.50;;;;;;;;;;5091271;28;20646;-79
2024/02/08 08:44:48;;;;;;;22.98;21.40;;;;;;;;;;5093020;28;20249;-77
2024/02/08 08:47:16;;;;;;;23.93;21.80;;;;;;;;;;5090933;28;20592;-75
2024/02/08 08:49:43;;;;;;;25.15;23.25;;;;;;;;;;5090408;28;20452;-78
2024/02/08 08:52:23;;;;;;;25.48;23.42;;;;;;;;;;5091195;28;20260;-75
2024/02/08 08:54:57;;;;;;;23.20;21.50;;;;;;;;;;5091325;28;20201;-76
2024/02/08 08:57:25;;;;;;;23.42;21.92;;;;;;;;;;5089833;28;20702;-75
2024/02/08 08:59:56;;;;;;;23.85;21.65;;;;;;;;;;5091052;28;20287;-77
2024/02/08 09:02:23;;;;;;;22.83;21.25;;;;;;;;;;5090678;28;20198;-77
2024/02/08 09:04:51;;;;;;;22.30;20.65;;;;;;;;;;5089844;28;21086;-75
2024/02/08 09:07:20;;;;;;;23.13;21.15;;;;;;;;;;5089508;28;20254;-75
2024/02/08 09:10:04;;;;;;;23.73;22.00;;;;;;;;;;5091132;28;20572;-76
2024/02/08 09:13:00;;;;;;;21.55;20.05;;;;;;;;;;5089660;28;20577;-76
2024/02/08 09:15:28;;;;;;;22.58;20.83;;;;;;;;;;5090757;28;20214;-76
2024/02/08 09:17:58;;;;;;;22.58;21.00;;;;;;;;;;5085321;28;20238;-76
2024/02/08 09:20:28;;;;;;;21.25;19.85;;;;;;;;;;5089666;28;20234;-76
2024/02/08 09:22:57;;;;;;;23.40;21.58;;;;;;;;;;5090585;28;20187;-76
2024/02/08 09:25:24;;;;;;;22.52;20.52;;;;;;;;;;5087295;28;20253;-76
2024/02/08 09:27:56;;;;;;;21.83;20.48;;;;;;;;;;5069349;28;20230;-76
2024/02/08 09:30:39;;;;;;;22.63;21.02;;;;;;;;;;5071976;28;20266;-83
2024/02/08 09:33:14;;;;;;;22.67;21.27;;;;;;;;;;5070610;28;20211;-78
2024/02/08 09:35:42;;;;;;;24.00;21.92;;;;;;;;;;5073205;28;20229;-79
2024/02/08 09:38:09;;;;;;;23.08;21.17;;;;;;;;;;5086862;28;20703;-78
2024/02/08 09:40:45;;;;;;;22.27;20.60;;;;;;;;;;5089861;28;20213;-80
2024/02/08 09:43:17;;;;;;;22.93;21.20;;;;;;;;;;5091730;28;20205;-78
2024/02/08 09:45:45;;;;;;;23.13;21.42;;;;;;;;;;5092865;28;20517;-76
2024/02/08 09:48:25;;;;;;;22.33;20.92;;;;;;;;;;5092056;28;20230;-77
2024/02/08 09:50:53;;;;;;;20.80;19.35;;;;;;;;;;5093969;28;20190;-76
2024/02/08 09:53:27;;;;;;;21.13;19.40;;;;;;;;;;5094076;28;20972;-75
2024/02/08 09:55:56;;;;;;;20.90;19.05;;;;;;;;;;5076837;28;20209;-75
2024/02/08 09:58:33;;;;;;;21.17;19.77;;;;;;;;;;5082925;28;20313;-76
2024/02/08 10:01:01;;;;;;;22.10;20.50;;;;;;;;;;5094308;28;20194;-74
2024/02/08 10:03:32;;;;;;;21.50;19.98;;;;;;;;;;5082183;28;20536;-76
2024/02/08 10:06:12;;;;;;;21.30;19.70;;;;;;;;;;5079802;28;20600;-77
2024/02/08 10:08:50;;;;;;;20.85;19.55;;;;;;;;;;5094161;28;20471;-79
2024/02/08 10:11:35;;;;;;;20.67;19.40;;;;;;;;;;5089051;28;20217;-79
2024/02/08 10:14:02;;;;;;;21.15;19.80;;;;;;;;;;5098396;28;20234;-84
2024/02/08 10:16:43;;;;;;;20.92;19.48;;;;;;;;;;5097290;28;20214;-82
2024/02/08 10:19:27;;;;;;;22.67;20.77;;;;;;;;;;5085283;28;20262;-81
2024/02/08 10:21:57;;;;;;;22.10;20.33;;;;;;;;;;5086153;28;20238;-76
2024/02/08 10:24:28;;;;;;;22.67;21.17;;;;;;;;;;5097788;28;20455;-81
2024/02/08 10:26:58;;;;;;;22.85;20.95;;;;;;;;;;5080210;28;20881;-77
2024/02/08 10:29:31;;;;;;;21.30;19.70;;;;;;;;;;5093552;28;20302;-74
2024/02/08 10:35:21;;;;;;;22.70;20.83;;;;;;;;;;5091723;28;20245;-77
2024/02/08 10:37:49;;;;;;;22.13;20.40;;;;;;;;;;5090907;28;20784;-74
2024/02/08 10:40:32;;;;;;;21.85;20.23;;;;;;;;;;5093502;28;20255;-76
2024/02/08 10:42:59;;;;;;;22.40;20.70;;;;;;;;;;5093113;28;20238;-75
2024/02/08 10:48:36;;;;;;;20.80;19.50;;;;;;;;;;5091346;28;20428;-74
2024/02/08 10:51:11;;;;;;;21.33;19.90;;;;;;;;;;5092450;28;20644;-75
2024/02/08 10:53:48;;;;;;;22.00;20.30;;;;;;;;;;5093294;28;20218;-75
2024/02/08 10:56:17;;;;;;;22.10;20.20;;;;;;;;;;5091758;28;21128;-74
2024/02/08 10:58:55;;;;;;;22.33;20.77;;;;;;;;;;5087795;28;20477;-75
2024/02/08 11:01:37;;;;;;;24.23;22.02;;;;;;;;;;5072794;28;20484;-74
2024/02/08 11:04:17;;;;;;;22.45;20.95;;;;;;;;;;5072983;28;20274;-74
2024/02/08 11:06:54;;;;;;;23.63;21.67;;;;;;;;;;5072072;28;20656;-73
2024/02/08 11:09:21;;;;;;;23.97;22.17;;;;;;;;;;5090483;28;20483;-73
2024/02/08 11:11:56;;;;;;;24.83;22.88;;;;;;;;;;5093067;28;20445;-73
2024/02/08 11:14:26;;;;;;;23.30;21.50;;;;;;;;;;5093084;28;20217;-74
2024/02/08 11:16:54;;;;;;;25.05;22.95;;;;;;;;;;5085978;28;20538;-73
2024/02/08 11:19:22;;;;;;;25.20;23.30;;;;;;;;;;5071938;28;20231;-74
2024/02/08 11:21:51;;;;;;;25.37;23.57;;;;;;;;;;5074815;28;20461;-75
2024/02/08 11:24:27;;;;;;;27.60;24.80;;;;;;;;;;5081512;28;20462;-77
2024/02/08 11:41:52;;;;;;;28.48;25.45;;;;;;;;;;5082092;28;20435;-82
2024/02/08 11:44:25;;;;;;;25.15;23.05;;;;;;;;;;5083235;28;20207;-81
2024/02/08 11:46:58;;;;;;;25.88;23.73;;;;;;;;;;5083495;28;20302;-79
2024/02/08 11:49:32;;;;;;;25.77;23.53;;;;;;;;;;5084462;28;20192;-79
2024/02/08 11:52:02;;;;;;;25.27;23.17;;;;;;;;;;5084104;28;20446;-79
2024/02/08 11:54:29;;;;;;;24.75;22.75;;;;;;;;;;5083626;28;20469;-79
2024/02/08 11:57:00;;;;;;;24.63;22.63;;;;;;;;;;5081472;28;20212;-82
2024/02/08 11:59:27;;;;;;;26.43;24.03;;;;;;;;;;5084254;28;20458;-79
2024/02/08 12:01:54;;;;;;;24.80;22.90;;;;;;;;;;5083091;28;20449;-79
2024/02/08 12:04:22;;;;;;;26.83;24.63;;;;;;;;;;5083294;28;20446;-79
2024/02/08 12:06:49;;;;;;;25.20;23.10;;;;;;;;;;5082316;28;20528;-81
2024/02/08 12:12:25;;;;;;;24.15;22.05;;;;;;;;;;5080906;28;20403;-79
2024/02/08 12:14:53;;;;;;;26.23;24.10;;;;;;;;;;5082276;28;20307;-78
2024/02/08 12:17:21;;;;;;;25.40;23.07;;;;;;;;;;5080084;28;20477;-82
2024/02/08 12:19:48;;;;;;;26.23;23.87;;;;;;;;;;5082717;28;20961;-79
2024/02/08 12:22:17;;;;;;;24.80;22.80;;;;;;;;;;5082319;28;20453;-79
2024/02/08 12:24:44;;;;;;;23.87;22.17;;;;;;;;;;5082775;28;20453;-79
2024/02/08 12:27:12;;;;;;;25.55;23.33;;;;;;;;;;5081567;28;20461;-80
2024/02/08 12:29:44;;;;;;;24.77;22.63;;;;;;;;;;5082180;28;20199;-80
2024/02/08 12:32:16;;;;;;;26.37;23.70;;;;;;;;;;5082987;28;20456;-80
2024/02/08 12:34:43;;;;;;;25.10;23.10;;;;;;;;;;5082795;28;20474;-80
2024/02/08 12:37:12;;;;;;;26.07;23.73;;;;;;;;;;5082501;28;20479;-80
2024/02/08 12:39:40;;;;;;;23.90;22.00;;;;;;;;;;5082192;28;20460;-80
2024/02/08 12:42:08;;;;;;;25.43;23.07;;;;;;;;;;5082360;28;20481;-80
2024/02/08 12:44:35;;;;;;;25.13;23.07;;;;;;;;;;5083120;28;20531;-79
2024/02/08 12:47:06;;;;;;;25.20;23.03;;;;;;;;;;5080993;28;20510;-79
2024/02/08 12:49:33;;;;;;;25.52;23.60;;;;;;;;;;5083543;28;20449;-80
2024/02/08 12:52:03;;;;;;;24.50;22.57;;;;;;;;;;5082865;28;20196;-81
2024/02/08 12:54:30;;;;;;;25.15;23.13;;;;;;;;;;5083152;28;20984;-80
2024/02/08 12:57:10;;;;;;;24.90;22.50;;;;;;;;;;5081744;28;20204;-80
2024/02/08 12:59:38;;;;;;;23.60;21.83;;;;;;;;;;5082329;28;20483;-80
2024/02/08 13:02:09;;;;;;;24.45;22.65;;;;;;;;;;5082640;28;20446;-80
2024/02/08 13:04:43;;;;;;;25.87;23.50;;;;;;;;;;5082412;28;20268;-80
2024/02/08 13:07:11;;;;;;;24.83;22.83;;;;;;;;;;5081096;28;20438;-80
2024/02/08 13:09:39;;;;;;;23.77;22.03;;;;;;;;;;5082306;28;20261;-80
2024/02/08 13:12:14;;;;;;;24.35;22.48;;;;;;;;;;5081786;28;20449;-80
2024/02/08 13:14:48;;;;;;;22.48;20.98;;;;;;;;;;5081934;28;20230;-80
2024/02/08 13:17:18;;;;;;;22.55;21.00;;;;;;;;;;5081528;28;20223;-80
2024/02/08 13:19:47;;;;;;;22.27;20.50;;;;;;;;;;5086556;28;20203;-79
2024/02/08 13:22:14;;;;;;;22.85;21.35;;;;;;;;;;5093443;28;20198;-80
2024/02/08 13:24:45;;;;;;;23.75;22.05;;;;;;;;;;5102494;28;20218;-80
2024/02/08 13:27:12;;;;;;;23.00;21.27;;;;;;;;;;5101020;28;20191;-80
2024/02/08 13:29:39;;;;;;;23.77;22.10;;;;;;;;;;5101840;28;20524;-80
2024/02/08 13:32:07;;;;;;;23.63;21.80;;;;;;;;;;5096401;28;20205;-81
2024/02/08 13:34:40;;;;;;;23.58;21.90;;;;;;;;;;5079905;28;20539;-82
2024/02/08 13:37:15;;;;;;;23.88;22.08;;;;;;;;;;5075170;28;20274;-79
2024/02/08 13:39:42;;;;;;;21.70;20.35;;;;;;;;;;5077138;28;20570;-79
2024/02/08 13:42:09;;;;;;;22.80;21.02;;;;;;;;;;5075110;28;20273;-80
2024/02/08 13:44:36;;;;;;;20.60;19.30;;;;;;;;;;5084006;28;20199;-79
2024/02/08 13:47:04;;;;;;;21.83;20.37;;;;;;;;;;5089064;28;20229;-83
2024/02/08 13:49:32;;;;;;;23.05;20.90;;;;;;;;;;5101301;28;20488;-82
2024/02/08 13:52:01;;;;;;;21.52;20.10;;;;;;;;;;5101816;28;20215;-80
2024/02/08 13:54:31;;;;;;;21.73;20.15;;;;;;;;;;5100636;28;20230;-82
2024/02/08 13:56:58;;;;;;;22.17;20.45;;;;;;;;;;5100894;28;20205;-81
2024/02/08 13:59:27;;;;;;;21.35;20.05;;;;;;;;;;5094603;28;20211;-78
2024/02/08 14:01:54;;;;;;;21.30;20.00;;;;;;;;;;5071463;28;20210;-77
2024/02/08 14:04:22;;;;;;;22.85;21.35;;;;;;;;;;5089611;28;20602;-77
2024/02/08 14:06:55;;;;;;;22.58;21.05;;;;;;;;;;5096098;28;20211;-77
2024/02/08 14:09:25;;;;;;;23.95;21.88;;;;;;;;;;5090839;28;20212;-77
2024/02/08 14:11:55;;;;;;;21.98;20.27;;;;;;;;;;5092802;28;20207;-78
2024/02/08 14:14:29;;;;;;;23.13;21.38;;;;;;;;;;5091775;28;20227;-86
2024/02/08 14:16:56;;;;;;;22.30;20.85;;;;;;;;;;5092016;28;20211;-79
2024/02/08 14:19:33;;;;;;;23.67;21.98;;;;;;;;;;5092349;28;20276;-80
2024/02/08 14:22:05;;;;;;;24.60;22.60;;;;;;;;;;5097991;28;20202;-81
2024/02/08 14:24:36;;;;;;;23.65;21.65;;;;;;;;;;5085903;28;20297;-79
2024/02/08 14:27:05;;;;;;;23.42;21.73;;;;;;;;;;5090721;28;20242;-77
2024/02/08 14:29:32;;;;;;;23.10;21.50;;;;;;;;;;5091132;28;20207;-76
2024/02/08 14:32:04;;;;;;;23.33;21.73;;;;;;;;;;5092067;28;20214;-76
2024/02/08 14:34:31;;;;;;;23.33;21.48;;;;;;;;;;5073651;28;20223;-77
2024/02/08 14:36:58;;;;;;;23.48;21.88;;;;;;;;;;5072987;28;20203;-77
2024/02/08 14:39:28;;;;;;;22.75;21.25;;;;;;;;;;5073839;28;20215;-77
2024/02/08 14:41:56;;;;;;;22.58;21.05;;;;;;;;;;5073641;28;20225;-77
2024/02/08 14:44:31;;;;;;;22.98;21.45;;;;;;;;;;5073644;28;20207;-76
2024/02/08 14:46:58;;;;;;;22.17;20.60;;;;;;;;;;5072861;28;20221;-76
2024/02/08 14:49:28;;;;;;;21.60;20.30;;;;;;;;;;5073687;28;20261;-75
2024/02/08 14:52:01;;;;;;;21.92;20.60;;;;;;;;;;5073806;28;20208;-77
2024/02/08 14:54:28;;;;;;;21.92;20.48;;;;;;;;;;5073344;28;20700;-77
2024/02/08 14:57:09;;;;;;;23.13;21.63;;;;;;;;;;5077337;28;20204;-80
2024/02/08 14:59:45;;;;;;;21.50;20.10;;;;;;;;;;5079134;28;20285;-87
2024/02/08 15:02:18;;;;;;;22.00;20.50;;;;;;;;;;5081036;28;20203;-81
2024/02/08 15:04:52;;;;;;;21.58;20.27;;;;;;;;;;5087215;28;20199;-81
2024/02/08 15:07:44;;;;;;;21.92;20.60;;;;;;;;;;5082383;28;20227;-80
2024/02/08 15:10:15;;;;;;;22.63;21.13;;;;;;;;;;5083632;28;20648;-79
2024/02/08 15:12:51;;;;;;;21.40;20.10;;;;;;;;;;5083475;28;20241;-81
2024/02/08 15:15:29;;;;;;;21.30;20.00;;;;;;;;;;5083551;28;20211;-79
2024/02/08 15:18:10;;;;;;;21.17;19.88;;;;;;;;;;5083002;28;20239;-80
2024/02/08 15:20:37;;;;;;;21.98;20.50;;;;;;;;;;5083915;28;20187;-80
2024/02/08 15:23:31;;;;;;;21.15;19.85;;;;;;;;;;5083426;28;20204;-80
2024/02/08 15:25:59;;;;;;;20.48;19.35;;;;;;;;;;5083373;28;20183;-81
2024/02/08 15:28:31;;;;;;;21.77;20.52;;;;;;;;;;5082565;28;20223;-80
2024/02/08 15:31:11;;;;;;;22.35;20.85;;;;;;;;;;5083337;28;21052;-79
2024/02/08 15:33:55;;;;;;;22.30;20.90;;;;;;;;;;5082991;28;20196;-80
2024/02/08 15:36:31;;;;;;;21.30;20.00;;;;;;;;;;5082401;28;20221;-80
2024/02/08 15:39:25;;;;;;;19.92;18.77;;;;;;;;;;5100447;28;20261;-81
2024/02/08 15:41:51;;;;;;;21.90;20.50;;;;;;;;;;5092177;28;20206;-76
2024/02/08 15:44:33;;;;;;;22.65;21.02;;;;;;;;;;5092607;28;20203;-76
2024/02/08 15:47:00;;;;;;;22.35;20.95;;;;;;;;;;5092824;28;20203;-79
2024/02/08 15:49:28;;;;;;;21.63;20.23;;;;;;;;;;5092755;28;20210;-76
2024/02/08 15:51:55;;;;;;;25.10;23.35;;;;;;;;;;5092690;28;20257;-77
2024/02/08 15:54:23;;;;;;;22.25;21.05;;;;;;;;;;5092350;28;20227;-77
2024/02/08 15:56:53;;;;;;;23.58;22.15;;;;;;;;;;5092473;28;20207;-78
2024/02/08 15:59:22;;;;;;;22.65;21.15;;;;;;;;;;5092405;28;20763;-77
2024/02/08 16:01:50;;;;;;;24.00;22.30;;;;;;;;;;5096214;28;20203;-77
2024/02/08 16:04:44;;;;;;;22.50;21.20;;;;;;;;;;5092641;28;20286;-78
2024/02/08 16:07:14;;;;;;;21.85;20.63;;;;;;;;;;5072418;28;20219;-82
2024/02/08 16:09:45;;;;;;;20.67;19.55;;;;;;;;;;5094880;28;20298;-84
2024/02/08 16:12:22;;;;;;;22.00;20.70;;;;;;;;;;5099824;28;20291;-84
2024/02/08 16:14:59;;;;;;;23.15;21.85;;;;;;;;;;5098981;28;20222;-84
2024/02/08 16:17:36;;;;;;;23.25;21.88;;;;;;;;;;5098281;28;20227;-76
2024/02/08 16:20:08;;;;;;;24.50;23.10;;;;;;;;;;5092111;28;20191;-76
2024/02/08 16:22:47;;;;;;;23.40;22.00;;;;;;;;;;5091963;28;20233;-76
2024/02/08 16:25:17;;;;;;;23.45;22.25;;;;;;;;;;5092202;28;20187;-75
2024/02/08 16:27:48;;;;;;;24.23;22.73;;;;;;;;;;5091407;28;20226;-77
2024/02/08 16:30:28;;;;;;;24.85;23.35;;;;;;;;;;5092030;28;20263;-76
2024/02/08 16:32:56;;;;;;;25.38;23.77;;;;;;;;;;5093284;28;20183;-79
2024/02/08 16:35:40;;;;;;;25.65;24.15;;;;;;;;;;5098860;28;20223;-88
2024/02/08 16:38:16;;;;;;;26.23;24.73;;;;;;;;;;5097174;28;20222;-87